createdAt,value
2019-06-07T00:00:47.642Z,6.50
2019-06-07T00:05:50.031Z,7.13
2019-06-07T00:10:52.345Z,7.27
2019-06-07T00:15:54.634Z,6.53
2019-06-07T00:20:56.809Z,6.90
2019-06-07T00:25:59.313Z,6.60
2019-06-07T00:31:01.491Z,6.63
2019-06-07T00:36:04.011Z,6.47
2019-06-07T00:41:06.207Z,6.93
2019-06-07T00:46:08.339Z,6.90
2019-06-07T00:51:11.630Z,6.60
2019-06-07T00:56:14.019Z,5.87
2019-06-07T01:01:20.125Z,5.80
2019-06-07T01:06:22.921Z,5.33
2019-06-07T01:11:26.909Z,5.27
2019-06-07T01:16:53.245Z,5.13
2019-06-07T01:21:32.809Z,4.53
2019-06-07T01:26:35.411Z,4.67
2019-06-07T01:31:38.667Z,4.23
2019-06-07T01:36:41.639Z,4.00
2019-06-07T01:41:44.642Z,3.77
2019-06-07T01:46:47.577Z,3.97
2019-06-07T01:51:50.143Z,3.80
2019-06-07T01:56:52.862Z,4.10
2019-06-07T02:01:55.059Z,4.33
2019-06-07T02:06:57.834Z,4.33
2019-06-07T02:12:00.831Z,4.87
2019-06-07T02:17:03.224Z,4.57
2019-06-07T02:22:05.670Z,4.70
2019-06-07T02:27:08.811Z,4.37
2019-06-07T02:32:11.516Z,4.67
2019-06-07T02:37:14.531Z,4.67
2019-06-07T02:42:16.817Z,4.63
2019-06-07T02:47:19.098Z,4.60
2019-06-07T02:52:24.239Z,4.63
2019-06-07T02:57:28.326Z,5.00
2019-06-07T03:02:33.514Z,4.77
2019-06-07T03:07:39.361Z,4.90
2019-06-07T03:12:44.671Z,5.20
2019-06-07T03:18:03.798Z,4.97
2019-06-07T03:23:06.264Z,5.10
2019-06-07T03:28:09.372Z,5.30
2019-06-07T03:33:12.125Z,4.93
2019-06-07T03:38:15.075Z,5.10
2019-06-07T03:43:17.638Z,5.67
2019-06-07T03:48:19.957Z,4.50
2019-06-07T03:53:22.412Z,4.50
2019-06-07T03:58:31.848Z,4.83
2019-06-07T04:03:36.151Z,5.03
2019-06-07T04:08:39.671Z,5.23
2019-06-07T04:13:42.730Z,5.17
2019-06-07T04:18:44.223Z,5.23
2019-06-07T04:23:46.893Z,5.03
2019-06-07T04:33:56.375Z,5.43
2019-06-07T04:39:00.396Z,5.33
2019-06-07T04:44:05.304Z,5.73
2019-06-07T04:49:08.163Z,5.30
2019-06-07T04:54:10.360Z,5.73
2019-06-07T04:59:13.048Z,6.07
2019-06-07T05:04:15.810Z,5.50
2019-06-07T05:09:19.038Z,5.47
2019-06-07T05:14:22.274Z,5.70
2019-06-07T05:19:24.542Z,5.20
2019-06-07T05:24:27.146Z,5.80
2019-06-07T05:29:30.804Z,5.50
2019-06-07T05:34:34.568Z,4.70
2019-06-07T05:39:40.420Z,5.47
2019-06-07T05:44:45.490Z,5.47
2019-06-07T05:49:47.569Z,5.53
2019-06-07T05:54:50.476Z,5.53
2019-06-07T05:59:53.377Z,3.90
2019-06-07T06:04:56.470Z,4.30
2019-06-07T06:09:58.627Z,4.07
2019-06-07T06:15:01.278Z,4.37
2019-06-07T06:20:04.898Z,4.60
2019-06-07T06:30:15.819Z,3.60
2019-06-07T06:35:18.535Z,4.43
2019-06-07T06:40:21.781Z,3.63
2019-06-07T06:45:24.382Z,3.60
2019-06-07T06:50:26.865Z,3.90
2019-06-07T06:55:30.144Z,4.10
2019-06-07T07:00:53.479Z,3.70
2019-06-07T07:05:54.998Z,3.63
2019-06-07T07:10:57.498Z,4.20
2019-06-07T07:16:00.679Z,3.10
2019-06-07T07:21:03.165Z,3.37
2019-06-07T07:26:05.456Z,2.90
2019-06-07T07:31:07.783Z,2.90
2019-06-07T07:36:28.698Z,2.77
2019-06-07T07:41:16.013Z,2.43
2019-06-07T07:46:35.508Z,2.77
2019-06-07T07:51:22.771Z,2.40
2019-06-07T07:56:25.299Z,2.90
2019-06-07T08:01:27.465Z,3.00
2019-06-07T08:06:29.978Z,3.00
2019-06-07T08:11:32.513Z,2.80
2019-06-07T08:16:34.856Z,3.10
2019-06-07T08:21:38.671Z,2.70
2019-06-07T08:26:41.263Z,3.27
2019-06-07T08:31:43.428Z,2.40
2019-06-07T08:36:45.645Z,2.60
2019-06-07T08:41:59.323Z,3.70
2019-06-07T08:46:56.584Z,3.13
2019-06-07T08:52:03.061Z,3.30
2019-06-07T08:57:17.585Z,3.20
2019-06-07T09:02:20.949Z,3.33
2019-06-07T09:07:19.191Z,4.00
2019-06-07T09:12:14.523Z,3.63
2019-06-07T09:17:17.418Z,3.33
2019-06-07T09:22:19.902Z,3.30
2019-06-07T09:27:22.552Z,3.20
2019-06-07T09:32:25.601Z,3.07
2019-06-07T09:42:32.429Z,2.93
2019-06-07T09:47:34.686Z,3.70
2019-06-07T09:52:57.195Z,5.17
2019-06-07T09:57:41.980Z,3.30
2019-06-07T10:02:44.280Z,2.87
2019-06-07T10:08:02.611Z,2.50
2019-06-07T10:12:51.628Z,2.50
2019-06-07T10:17:54.487Z,2.60
2019-06-07T10:22:56.783Z,2.80
2019-06-07T10:28:00.036Z,3.00
2019-06-07T10:33:04.670Z,2.80
2019-06-07T10:38:06.873Z,2.77
2019-06-07T10:43:12.609Z,3.20
2019-06-07T10:48:13.944Z,2.70
2019-06-07T10:53:16.475Z,2.63
2019-06-07T10:58:19.871Z,2.47
2019-06-07T11:03:22.395Z,2.90
2019-06-07T11:08:24.821Z,3.00
2019-06-07T11:13:27.603Z,2.80
2019-06-07T11:18:29.979Z,2.80
2019-06-07T11:23:32.529Z,3.40
2019-06-07T11:28:34.976Z,4.20
2019-06-07T11:33:37.322Z,2.60
2019-06-07T11:38:40.103Z,2.93
2019-06-07T11:43:42.315Z,2.70
2019-06-07T11:48:44.564Z,2.80
2019-06-07T11:53:47.097Z,2.90
2019-06-07T11:58:49.718Z,3.20
2019-06-07T12:03:52.787Z,2.77
2019-06-07T12:08:55.277Z,2.53
2019-06-07T12:13:58.087Z,2.87
2019-06-07T12:19:00.690Z,2.93
2019-06-07T12:24:03.469Z,2.97
2019-06-07T12:29:06.111Z,2.80
2019-06-07T12:34:09.496Z,2.90
2019-06-07T12:39:12.341Z,2.80
2019-06-07T12:44:16.593Z,2.67
2019-06-07T12:49:19.216Z,2.47
2019-06-07T12:54:23.835Z,2.77
2019-06-07T12:59:26.297Z,2.80
2019-06-07T13:04:28.851Z,2.87
2019-06-07T13:09:31.285Z,2.70
2019-06-07T13:14:33.785Z,2.97
2019-06-07T13:19:36.686Z,3.00
2019-06-07T13:24:38.879Z,2.93
2019-06-07T13:29:41.390Z,2.90
2019-06-07T13:34:43.581Z,3.10
2019-06-07T13:39:46.095Z,3.07
2019-06-07T13:44:49.635Z,3.50
2019-06-07T13:49:55.284Z,3.50
2019-06-07T13:54:57.316Z,3.33
2019-06-07T14:00:00.344Z,3.20
2019-06-07T14:05:03.956Z,3.63
2019-06-07T14:10:06.941Z,3.30
2019-06-07T14:15:11.929Z,3.27
2019-06-07T14:20:15.293Z,3.20
2019-06-07T14:25:18.535Z,3.07
2019-06-07T14:30:21.835Z,3.27
2019-06-07T14:35:24.518Z,3.60
2019-06-07T14:40:27.931Z,3.60
2019-06-07T14:45:32.608Z,3.57
2019-06-07T14:50:34.878Z,3.47
2019-06-07T14:55:37.410Z,3.27
2019-06-07T15:00:42.188Z,3.73
2019-06-07T15:05:45.145Z,3.20
2019-06-07T15:10:48.252Z,3.60
2019-06-07T15:15:50.656Z,3.20
2019-06-07T15:20:52.962Z,3.50
2019-06-07T15:25:55.165Z,3.70
2019-06-07T15:30:57.612Z,3.93
2019-06-07T15:36:00.182Z,3.40
2019-06-07T15:41:02.366Z,3.30
2019-06-07T15:46:04.550Z,3.37
2019-06-07T15:51:06.721Z,3.40
2019-06-07T15:56:09.541Z,3.27
2019-06-07T16:01:12.452Z,3.10
2019-06-07T16:06:15.125Z,3.53
2019-06-07T16:11:17.286Z,3.20
2019-06-07T16:16:19.846Z,3.63
2019-06-07T16:21:22.123Z,3.40
2019-06-07T16:26:24.890Z,3.53
2019-06-07T16:31:27.400Z,3.40
2019-06-07T16:36:29.571Z,3.67
2019-06-07T16:41:32.201Z,3.60
2019-06-07T16:46:34.398Z,3.83
2019-06-07T16:51:37.241Z,4.27
2019-06-07T16:56:45.403Z,4.47
2019-06-07T17:01:43.697Z,3.90
2019-06-07T17:06:46.507Z,4.07
2019-06-07T17:11:49.217Z,4.10
2019-06-07T17:16:51.727Z,4.30
2019-06-07T17:21:54.077Z,4.27
2019-06-07T17:26:56.966Z,4.40
2019-06-07T17:31:59.674Z,4.50
2019-06-07T17:37:02.491Z,4.37
2019-06-07T17:42:05.057Z,4.23
2019-06-07T17:47:07.712Z,4.63
2019-06-07T17:52:10.564Z,4.70
2019-06-07T17:57:13.044Z,4.87
2019-06-07T18:02:15.911Z,5.53
2019-06-07T18:07:20.819Z,5.43
2019-06-07T18:12:24.296Z,5.53
2019-06-07T18:17:34.425Z,5.50
2019-06-07T18:22:32.382Z,5.80
2019-06-07T18:27:35.271Z,5.60
2019-06-07T18:32:37.787Z,5.87
2019-06-07T18:37:40.109Z,6.37
2019-06-07T18:42:44.058Z,6.30
2019-06-07T18:47:47.838Z,7.33
2019-06-07T18:52:50.901Z,8.07
2019-06-07T18:57:54.504Z,7.63
2019-06-07T19:02:58.086Z,8.23
2019-06-07T19:08:00.814Z,8.40
2019-06-07T19:13:04.043Z,9.27
2019-06-07T19:18:07.210Z,9.23
2019-06-07T19:23:09.772Z,10.00
2019-06-07T19:28:13.098Z,9.97
2019-06-07T19:33:15.608Z,10.00
2019-06-07T19:38:18.555Z,10.47
2019-06-07T19:43:21.693Z,11.07
2019-06-07T19:48:24.542Z,11.37
2019-06-07T19:53:27.783Z,11.63
2019-06-07T19:58:30.765Z,11.97
2019-06-07T20:03:34.055Z,12.53
2019-06-07T20:08:42.180Z,13.13
2019-06-07T20:13:45.412Z,12.87
2019-06-07T20:18:48.342Z,12.60
2019-06-07T20:23:51.977Z,13.47
2019-06-07T20:28:55.156Z,13.50
2019-06-07T20:33:58.693Z,13.23
2019-06-07T20:39:02.205Z,13.97
2019-06-07T20:44:08.112Z,13.10
2019-06-07T20:49:11.422Z,12.50
2019-06-07T20:54:15.194Z,13.00
2019-06-07T20:59:19.026Z,12.70
2019-06-07T21:04:23.388Z,12.80
2019-06-07T21:09:27.107Z,12.77
2019-06-07T21:14:30.327Z,12.37
2019-06-07T21:19:33.368Z,11.87
2019-06-07T21:24:36.109Z,12.17
2019-06-07T21:29:38.538Z,11.73
2019-06-07T21:34:41.181Z,11.13
2019-06-07T21:39:44.472Z,11.67
2019-06-07T21:44:47.731Z,11.37
2019-06-07T21:49:50.176Z,11.20
2019-06-07T21:54:53.035Z,11.20
2019-06-07T21:59:55.271Z,11.33
2019-06-07T22:04:57.717Z,10.90
2019-06-07T22:10:00.214Z,10.70
2019-06-07T22:15:17.129Z,11.50
2019-06-07T22:20:08.637Z,11.93
2019-06-07T22:25:11.224Z,11.73
2019-06-07T22:30:14.555Z,11.37
2019-06-07T22:35:16.843Z,12.27
2019-06-07T22:40:19.868Z,11.23
2019-06-07T22:45:22.173Z,11.77
2019-06-07T22:50:25.312Z,11.83
2019-06-07T22:55:27.641Z,11.67
2019-06-07T23:00:32.026Z,11.47
2019-06-07T23:05:34.212Z,11.83
2019-06-07T23:10:36.413Z,12.17
2019-06-07T23:15:38.591Z,11.87
2019-06-07T23:20:40.748Z,12.43
2019-06-07T23:25:42.891Z,12.40
2019-06-07T23:30:45.056Z,12.23
2019-06-07T23:35:47.891Z,12.27
2019-06-07T23:40:50.326Z,12.70
2019-06-07T23:45:53.195Z,12.87
2019-06-07T23:50:55.507Z,12.90
2019-06-07T23:55:59.542Z,13.90
